Time;durP1;ratioP1;P1;durP2;ratioP2;P2;SDS_P1;SDS_P2;PMS_P1;PMS_P2;Temp;Humidity;BMP_temperature;BMP_pressure;BME280_temperature;BME280_humidity;BME280_pressure;Samples;Min_cycle;Max_cycle;Signal;HPM_P1;HPM_P2
2023/05/27 00:02:07;;;;;;;0.20;0.20;;;;;;;11.71;60.51;98488.28;5050329;28;20037;-73
2023/05/27 00:04:35;;;;;;;0.22;0.22;;;;;;;11.56;61.00;98492.75;5047244;28;20056;-73
2023/05/27 00:07:04;;;;;;;0.20;0.20;;;;;;;11.59;60.79;98489.72;5050725;28;20041;-73
2023/05/27 00:09:32;;;;;;;0.10;0.10;;;;;;;11.44;61.39;98488.81;5050666;28;20048;-73
2023/05/27 00:12:00;;;;;;;0.20;0.20;;;;;;;11.40;61.20;98495.53;5051120;28;20501;-73
2023/05/27 00:14:27;;;;;;;0.10;0.10;;;;;;;11.48;61.07;98497.31;5044408;28;20119;-73
2023/05/27 00:16:56;;;;;;;0.22;0.22;;;;;;;11.53;60.46;98495.75;5051019;28;20055;-73
2023/05/27 00:19:24;;;;;;;0.20;0.20;;;;;;;11.30;61.28;98493.09;5043301;28;20408;-73
2023/05/27 00:21:52;;;;;;;0.13;0.13;;;;;;;11.11;62.26;98500.75;5044215;28;20076;-73
2023/05/27 00:24:21;;;;;;;0.20;0.20;;;;;;;11.20;61.66;98500.50;5038324;28;20046;-73
2023/05/27 00:26:49;;;;;;;0.20;0.20;;;;;;;11.25;61.49;98494.63;5046684;28;20049;-72
2023/05/27 00:29:17;;;;;;;0.20;0.20;;;;;;;11.33;61.29;98494.56;5029736;28;20045;-72
2023/05/27 00:31:45;;;;;;;0.20;0.20;;;;;;;11.36;61.18;98496.88;5044742;28;20049;-72
2023/05/27 00:34:12;;;;;;;0.20;0.20;;;;;;;11.42;60.99;98506.06;5034862;28;20051;-72
2023/05/27 00:36:40;;;;;;;0.20;0.20;;;;;;;11.53;60.34;98500.28;5026076;28;20049;-72
2023/05/27 00:39:08;;;;;;;0.25;0.25;;;;;;;11.52;60.38;98503.97;5024416;28;20042;-72
2023/05/27 00:41:37;;;;;;;0.20;0.20;;;;;;;11.35;60.91;98504.06;5030882;28;20095;-72
2023/05/27 00:44:05;;;;;;;0.20;0.20;;;;;;;11.41;61.04;98505.22;5027546;28;20041;-73
2023/05/27 00:46:32;;;;;;;0.20;0.20;;;;;;;11.07;62.11;98510.09;5023441;28;20052;-72
2023/05/27 00:49:00;;;;;;;0.10;0.10;;;;;;;11.25;62.53;98500.81;5022445;28;20038;-72
2023/05/27 00:51:28;;;;;;;0.13;0.13;;;;;;;11.07;63.36;98505.59;5043014;28;20033;-74
2023/05/27 00:53:55;;;;;;;0.25;0.25;;;;;;;10.76;64.38;98496.72;5050341;28;20388;-74
2023/05/27 00:56:25;;;;;;;0.20;0.20;;;;;;;10.74;64.82;98496.06;5029833;28;20515;-72
2023/05/27 00:58:54;;;;;;;0.30;0.30;;;;;;;10.90;63.38;98496.81;5018390;28;20051;-74
2023/05/27 01:01:25;;;;;;;0.20;0.20;;;;;;;11.02;62.71;98491.91;5042871;28;20036;-74
2023/05/27 01:03:53;;;;;;;0.30;0.30;;;;;;;11.11;62.29;98490.84;5049259;28;20063;-75
2023/05/27 01:06:28;;;;;;;0.20;0.20;;;;;;;11.25;60.92;98489.28;5027336;28;20063;-73
2023/05/27 01:09:00;;;;;;;0.20;0.20;;;;;;;11.26;60.15;98475.75;5024672;28;20045;-75
2023/05/27 01:11:32;;;;;;;0.20;0.20;;;;;;;11.27;59.11;98477.41;5050861;28;20090;-72
2023/05/27 01:14:06;;;;;;;0.25;0.25;;;;;;;11.28;58.89;98481.75;5031827;28;20041;-72
2023/05/27 01:16:34;;;;;;;0.20;0.20;;;;;;;10.78;61.78;98476.03;5051117;28;20118;-74
2023/05/27 01:19:03;;;;;;;0.25;0.25;;;;;;;10.13;64.21;98482.38;5033399;28;20140;-72
2023/05/27 01:21:31;;;;;;;0.20;0.20;;;;;;;10.11;63.91;98472.88;5054117;28;20131;-72
2023/05/27 01:24:05;;;;;;;0.25;0.25;;;;;;;10.21;63.58;98468.22;5056863;28;20033;-74
2023/05/27 01:26:33;;;;;;;0.20;0.20;;;;;;;10.14;64.15;98464.53;5031244;28;20042;-72
2023/05/27 01:29:01;;;;;;;0.20;0.20;;;;;;;10.02;64.33;98471.22;5034703;28;20129;-72
2023/05/27 01:31:35;;;;;;;0.20;0.20;;;;;;;9.67;65.99;98475.06;5051829;28;20415;-72
2023/05/27 01:34:08;;;;;;;0.20;0.20;;;;;;;9.47;66.71;98479.91;5048333;28;20037;-72
2023/05/27 01:36:58;;;;;;;0.20;0.20;;;;;;;9.41;66.83;98467.25;5034104;28;20109;-72
2023/05/27 01:39:29;;;;;;;0.20;0.20;;;;;;;9.66;65.47;98466.25;5014433;28;20056;-71
2023/05/27 01:41:57;;;;;;;0.30;0.30;;;;;;;9.75;65.51;98469.75;5042054;28;20128;-72
2023/05/27 01:44:25;;;;;;;0.20;0.20;;;;;;;9.60;65.93;98466.91;5049975;28;20509;-72
2023/05/27 01:46:59;;;;;;;0.20;0.20;;;;;;;9.76;65.74;98466.09;5050403;28;20496;-72
2023/05/27 01:49:27;;;;;;;0.20;0.20;;;;;;;9.88;65.37;98472.72;5050921;28;20037;-72
2023/05/27 01:51:54;;;;;;;0.20;0.20;;;;;;;9.78;65.21;98458.75;5050576;28;20759;-74
2023/05/27 01:54:22;;;;;;;0.20;0.20;;;;;;;9.79;65.19;98460.41;5051303;28;20046;-72
2023/05/27 01:56:51;;;;;;;0.20;0.20;;;;;;;9.83;64.86;98456.41;5031549;28;20100;-71
2023/05/27 01:59:19;;;;;;;0.20;0.20;;;;;;;9.72;65.35;98457.59;5025431;28;20732;-72
2023/05/27 02:01:46;;;;;;;0.20;0.20;;;;;;;9.86;64.86;98453.44;5019475;28;20042;-73
2023/05/27 02:04:14;;;;;;;0.20;0.20;;;;;;;9.80;65.05;98456.75;5017687;28;20049;-71
2023/05/27 02:06:42;;;;;;;0.15;0.15;;;;;;;9.67;65.74;98446.59;5048229;28;20091;-73
2023/05/27 02:09:10;;;;;;;0.20;0.20;;;;;;;9.54;65.94;98449.78;5052117;28;20045;-73
2023/05/27 02:11:40;;;;;;;0.30;0.30;;;;;;;9.50;66.71;98452.94;5032943;28;20034;-73
2023/05/27 02:14:10;;;;;;;0.20;0.20;;;;;;;9.63;65.92;98455.94;5029455;28;20057;-73
2023/05/27 02:16:39;;;;;;;0.20;0.20;;;;;;;9.50;66.44;98447.59;5034174;28;20128;-72
2023/05/27 02:19:07;;;;;;;0.10;0.10;;;;;;;9.44;67.11;98462.44;5031669;28;20049;-71
2023/05/27 02:21:35;;;;;;;0.15;0.15;;;;;;;9.30;67.46;98452.44;5023572;28;20493;-71
2023/05/27 02:24:03;;;;;;;0.25;0.25;;;;;;;9.33;67.37;98454.78;5027356;28;20053;-71
2023/05/27 02:26:30;;;;;;;0.20;0.20;;;;;;;9.40;67.00;98446.94;5049705;28;20492;-72
2023/05/27 02:29:01;;;;;;;0.20;0.20;;;;;;;9.32;67.37;98452.28;5032019;28;20108;-72
2023/05/27 02:31:30;;;;;;;0.25;0.25;;;;;;;9.22;67.77;98452.44;5048873;28;20064;-71
2023/05/27 02:33:58;;;;;;;0.20;0.20;;;;;;;9.18;67.96;98451.91;5030600;28;20534;-72
2023/05/27 02:36:26;;;;;;;0.20;0.20;;;;;;;9.08;68.53;98459.22;5049842;28;20482;-73
2023/05/27 02:38:55;;;;;;;0.20;0.20;;;;;;;9.11;67.97;98450.91;5023240;28;20132;-73
2023/05/27 02:41:22;;;;;;;0.28;0.28;;;;;;;9.07;68.40;98446.06;5048604;28;20044;-72
2023/05/27 02:43:50;;;;;;;0.20;0.20;;;;;;;9.10;68.48;98454.56;5039620;23;20045;-71
2023/05/27 02:46:18;;;;;;;0.25;0.25;;;;;;;9.22;67.61;98449.75;5026821;28;20128;-71
2023/05/27 02:48:47;;;;;;;0.20;0.20;;;;;;;8.95;68.07;98458.03;5032503;28;20087;-70
2023/05/27 02:51:15;;;;;;;0.20;0.20;;;;;;;9.04;67.75;98455.22;5013176;28;20132;-70
2023/05/27 02:53:42;;;;;;;0.20;0.20;;;;;;;8.93;68.39;98457.38;5029140;28;20041;-70
2023/05/27 02:56:10;;;;;;;0.20;0.20;;;;;;;8.87;68.53;98463.31;5014834;28;20072;-69
2023/05/27 02:58:38;;;;;;;0.20;0.20;;;;;;;9.11;67.69;98466.88;5030326;28;20076;-70
2023/05/27 03:01:05;;;;;;;0.15;0.15;;;;;;;9.31;67.00;98464.75;5008124;28;20154;-70
2023/05/27 03:03:33;;;;;;;0.20;0.20;;;;;;;8.91;68.30;98460.19;5031175;28;20065;-69
2023/05/27 03:06:03;;;;;;;0.30;0.30;;;;;;;8.67;69.40;98457.44;5051779;28;20047;-69
2023/05/27 03:08:31;;;;;;;0.20;0.20;;;;;;;8.90;68.56;98465.69;5036070;28;20530;-70
2023/05/27 03:10:59;;;;;;;0.20;0.20;;;;;;;9.10;67.40;98465.22;5045822;28;20049;-70
2023/05/27 03:13:26;;;;;;;0.10;0.10;;;;;;;8.95;68.06;98474.81;5033241;28;20505;-70
2023/05/27 03:15:55;;;;;;;0.25;0.22;;;;;;;8.97;67.82;98464.84;5034796;28;20071;-71
2023/05/27 03:18:22;;;;;;;0.30;0.30;;;;;;;8.92;67.91;98467.19;5034531;28;20063;-72
2023/05/27 03:20:51;;;;;;;0.25;0.25;;;;;;;9.04;67.36;98460.53;5034969;28;20045;-71
2023/05/27 03:23:20;;;;;;;0.20;0.20;;;;;;;9.00;67.48;98466.38;5035973;28;20041;-71
2023/05/27 03:25:50;;;;;;;0.20;0.20;;;;;;;8.90;67.89;98457.69;5033348;28;20080;-70
2023/05/27 03:28:18;;;;;;;0.20;0.20;;;;;;;8.68;68.57;98461.78;5052688;28;20492;-69
2023/05/27 03:30:46;;;;;;;0.20;0.20;;;;;;;8.54;69.34;98465.88;5046476;28;20135;-70
2023/05/27 03:33:25;;;;;;;0.20;0.20;;;;;;;8.42;69.88;98456.50;5033359;28;20037;-70
2023/05/27 03:35:52;;;;;;;0.10;0.10;;;;;;;8.97;67.63;98464.03;5051229;28;20041;-70
2023/05/27 03:38:21;;;;;;;0.17;0.17;;;;;;;8.82;68.01;98467.28;5051791;28;20041;-71
2023/05/27 03:40:49;;;;;;;0.20;0.20;;;;;;;8.67;68.64;98462.78;5034078;28;20071;-70
2023/05/27 03:43:17;;;;;;;0.20;0.20;;;;;;;8.64;68.51;98471.06;5051718;28;20043;-70
2023/05/27 03:45:44;;;;;;;0.20;0.20;;;;;;;8.84;67.74;98478.63;5050651;28;20048;-70
2023/05/27 03:48:12;;;;;;;0.20;0.20;;;;;;;8.90;67.72;98471.00;5032073;28;20041;-70
2023/05/27 03:50:40;;;;;;;0.10;0.10;;;;;;;8.83;67.77;98474.28;5033503;28;20531;-70
2023/05/27 03:53:10;;;;;;;0.20;0.20;;;;;;;8.66;68.00;98469.91;5051532;28;20071;-69
2023/05/27 03:55:38;;;;;;;0.20;0.20;;;;;;;8.43;68.63;98472.31;5034406;28;20041;-69
2023/05/27 03:58:07;;;;;;;0.20;0.20;;;;;;;8.35;69.07;98469.63;5032694;28;20064;-69
2023/05/27 04:00:35;;;;;;;0.25;0.25;;;;;;;8.37;69.15;98472.97;5033439;28;20048;-69
2023/05/27 04:03:03;;;;;;;0.20;0.20;;;;;;;8.35;69.49;98466.97;5033772;28;20507;-69
2023/05/27 04:05:31;;;;;;;0.25;0.25;;;;;;;8.26;69.89;98473.19;5049318;28;20047;-69
2023/05/27 04:07:58;;;;;;;0.10;0.10;;;;;;;8.42;69.36;98480.44;5032797;28;20049;-70
2023/05/27 04:10:26;;;;;;;0.20;0.20;;;;;;;8.66;68.81;98467.25;5033687;28;20058;-72
2023/05/27 04:12:57;;;;;;;0.17;0.17;;;;;;;8.60;68.82;98472.41;5023985;28;20760;-71
2023/05/27 04:15:26;;;;;;;0.30;0.30;;;;;;;8.63;68.50;98464.91;5028277;28;20479;-70
2023/05/27 04:17:53;;;;;;;0.20;0.20;;;;;;;8.60;68.66;98467.06;5045085;28;20098;-71
2023/05/27 04:20:21;;;;;;;0.20;0.20;;;;;;;8.56;68.94;98461.22;5033130;28;20107;-71
2023/05/27 04:22:53;;;;;;;0.20;0.20;;;;;;;8.50;68.88;98474.34;5027621;28;20119;-71
2023/05/27 04:25:22;;;;;;;0.20;0.20;;;;;;;8.46;68.90;98472.00;5032704;28;20045;-71
2023/05/27 04:28:03;;;;;;;0.17;0.17;;;;;;;8.31;69.56;98473.56;5033093;28;20515;-71
2023/05/27 04:30:33;;;;;;;0.30;0.30;;;;;;;8.25;70.02;98466.22;5024466;28;20529;-71
2023/05/27 04:33:01;;;;;;;0.22;0.22;;;;;;;8.37;69.75;98470.31;5022475;28;20063;-71
2023/05/27 04:35:30;;;;;;;0.20;0.20;;;;;;;8.30;70.13;98471.06;5019816;28;20049;-72
2023/05/27 04:38:00;;;;;;;0.25;0.25;;;;;;;8.36;70.14;98465.13;5031886;28;20041;-71
2023/05/27 04:40:35;;;;;;;0.13;0.13;;;;;;;8.45;69.75;98459.69;5028349;28;20099;-71
2023/05/27 04:43:29;;;;;;;0.20;0.20;;;;;;;8.66;69.12;98466.41;5045689;28;20037;-70
2023/05/27 04:45:59;;;;;;;0.20;0.20;;;;;;;8.67;68.87;98470.75;5027280;28;20041;-71
2023/05/27 04:48:27;;;;;;;0.20;0.20;;;;;;;8.53;69.56;98474.00;5031148;28;20072;-71
2023/05/27 04:50:56;;;;;;;0.20;0.20;;;;;;;8.33;70.70;98478.75;5032307;28;20063;-72
2023/05/27 04:53:24;;;;;;;0.30;0.20;;;;;;;8.55;70.07;98480.00;5028038;28;20420;-71
2023/05/27 04:55:52;;;;;;;0.20;0.20;;;;;;;8.92;68.85;98487.66;5044873;28;20411;-71
2023/05/27 04:58:21;;;;;;;0.20;0.20;;;;;;;8.75;69.30;98484.91;5030955;28;20195;-71
2023/05/27 05:00:53;;;;;;;0.50;0.50;;;;;;;8.68;69.74;98483.06;5032310;28;20051;-71
2023/05/27 05:03:26;;;;;;;0.20;0.20;;;;;;;8.66;69.79;98477.91;5019030;28;20041;-71
2023/05/27 05:05:55;;;;;;;0.20;0.20;;;;;;;8.90;69.38;98484.31;5030872;28;20116;-71
2023/05/27 05:08:23;;;;;;;0.30;0.20;;;;;;;9.02;68.94;98483.84;5053864;28;20037;-71
2023/05/27 05:10:51;;;;;;;0.10;0.10;;;;;;;9.08;69.01;98483.19;5040065;28;21355;-71
2023/05/27 05:13:20;;;;;;;0.30;0.30;;;;;;;9.22;68.85;98481.72;5054779;28;20029;-71
2023/05/27 05:15:47;;;;;;;0.10;0.10;;;;;;;9.24;68.63;98478.91;5034823;28;20044;-70
2023/05/27 05:18:17;;;;;;;0.30;0.30;;;;;;;9.19;68.70;98474.88;5035270;28;20048;-70
2023/05/27 05:20:45;;;;;;;0.28;0.28;;;;;;;9.21;68.64;98480.06;5031756;28;20049;-71
2023/05/27 05:23:15;;;;;;;0.30;0.30;;;;;;;9.44;68.18;98482.91;5024860;28;20053;-70
2023/05/27 05:25:43;;;;;;;0.20;0.20;;;;;;;9.60;67.69;98488.25;5032286;28;20198;-69
2023/05/27 05:28:11;;;;;;;0.30;0.30;;;;;;;9.69;67.56;98491.75;5049748;28;20033;-70
2023/05/27 05:30:40;;;;;;;0.20;0.20;;;;;;;9.87;67.04;98490.56;5030603;28;20061;-70
2023/05/27 05:33:09;;;;;;;0.10;0.10;;;;;;;10.02;66.51;98492.56;5032332;28;20047;-70
2023/05/27 05:35:38;;;;;;;0.20;0.20;;;;;;;10.15;66.36;98496.38;5031109;28;20041;-70
2023/05/27 05:38:22;;;;;;;0.30;0.30;;;;;;;10.31;66.20;98492.84;5032739;28;20045;-70
2023/05/27 05:40:52;;;;;;;0.22;0.22;;;;;;;10.40;65.78;98497.16;5024522;28;20087;-70
2023/05/27 05:43:20;;;;;;;0.20;0.20;;;;;;;10.42;66.12;98478.31;5050221;28;20138;-69
2023/05/27 05:45:49;;;;;;;0.22;0.22;;;;;;;10.54;65.82;98485.78;5031251;28;20037;-68
2023/05/27 05:48:19;;;;;;;0.30;0.30;;;;;;;10.52;66.10;98489.63;5025394;28;20045;-69
2023/05/27 05:50:48;;;;;;;0.20;0.20;;;;;;;10.68;65.96;98489.59;5030823;28;20111;-70
2023/05/27 05:53:16;;;;;;;0.30;0.30;;;;;;;10.77;65.96;98491.22;5033390;28;20574;-68
2023/05/27 05:55:45;;;;;;;0.25;0.25;;;;;;;10.85;65.77;98491.16;5030744;28;20060;-71
2023/05/27 05:58:13;;;;;;;0.20;0.20;;;;;;;11.02;65.44;98490.06;5038647;28;20104;-70
2023/05/27 06:00:41;;;;;;;0.20;0.20;;;;;;;11.17;64.97;98487.50;5037648;28;20131;-70
2023/05/27 06:03:29;;;;;;;0.10;0.10;;;;;;;11.34;64.33;98482.88;5034173;28;20044;-70
2023/05/27 06:06:00;;;;;;;0.20;0.20;;;;;;;11.43;63.95;98487.13;5033063;28;20610;-69
2023/05/27 06:08:28;;;;;;;0.30;0.30;;;;;;;11.55;64.12;98492.91;5037434;28;20076;-69
2023/05/27 06:11:02;;;;;;;0.20;0.20;;;;;;;11.66;63.55;98493.31;5031915;28;20136;-69
2023/05/27 06:13:33;;;;;;;0.17;0.17;;;;;;;11.73;63.53;98493.47;5032738;28;20599;-69
2023/05/27 06:16:02;;;;;;;0.28;0.28;;;;;;;11.79;63.36;98500.78;5030247;28;20045;-69
2023/05/27 06:18:30;;;;;;;0.20;0.20;;;;;;;11.87;63.20;98486.50;5028990;28;20033;-69
2023/05/27 06:20:58;;;;;;;0.32;0.32;;;;;;;11.89;62.92;98495.19;5030846;28;20041;-71
2023/05/27 06:23:29;;;;;;;0.45;0.45;;;;;;;11.78;63.44;98496.44;5037197;28;20504;-71
2023/05/27 06:26:14;;;;;;;0.47;0.20;;;;;;;11.85;62.51;98491.19;5031302;28;20037;-71
2023/05/27 06:28:48;;;;;;;0.20;0.20;;;;;;;12.02;62.60;98490.06;5036636;28;20048;-70
2023/05/27 06:31:16;;;;;;;0.22;0.22;;;;;;;12.09;62.20;98490.97;5032868;28;20381;-71
2023/05/27 06:33:44;;;;;;;0.20;0.20;;;;;;;12.20;62.09;98487.88;5040124;28;20108;-71
2023/05/27 06:36:12;;;;;;;0.22;0.22;;;;;;;12.25;61.76;98495.34;5038547;28;20416;-71
2023/05/27 06:38:43;;;;;;;0.22;0.22;;;;;;;12.33;61.59;98487.25;5038574;28;20416;-71
2023/05/27 06:41:10;;;;;;;0.32;0.32;;;;;;;12.40;61.21;98486.31;5034571;28;20412;-70
2023/05/27 06:43:45;;;;;;;0.20;0.20;;;;;;;12.57;60.21;98483.44;5028874;28;20061;-71
2023/05/27 06:46:39;;;;;;;0.30;0.30;;;;;;;12.72;60.03;98484.28;5048983;28;20085;-70
2023/05/27 06:49:14;;;;;;;0.25;0.25;;;;;;;12.69;59.95;98482.78;5035978;28;20052;-70
2023/05/27 06:51:43;;;;;;;0.20;0.20;;;;;;;12.80;60.05;98476.97;5059406;28;20488;-71
2023/05/27 06:54:12;;;;;;;0.25;0.25;;;;;;;12.84;59.33;98486.31;5040890;28;20041;-71
2023/05/27 06:56:43;;;;;;;0.20;0.20;;;;;;;12.93;58.90;98491.53;5036609;28;20056;-71
2023/05/27 06:59:30;;;;;;;0.20;0.20;;;;;;;13.08;58.95;98487.00;5059993;28;20041;-70
2023/05/27 07:01:58;;;;;;;0.22;0.22;;;;;;;13.21;58.87;98488.00;5049122;28;20044;-71
2023/05/27 07:04:26;;;;;;;0.20;0.20;;;;;;;13.33;58.68;98487.50;5039415;28;20049;-71
2023/05/27 07:06:57;;;;;;;0.20;0.20;;;;;;;13.32;58.16;98481.31;5030443;28;20396;-70
2023/05/27 07:09:26;;;;;;;0.10;0.10;;;;;;;13.38;58.73;98485.94;5036537;28;20045;-71
2023/05/27 07:11:54;;;;;;;0.20;0.20;;;;;;;13.48;58.84;98489.13;5044113;28;20044;-71
2023/05/27 07:14:42;;;;;;;0.20;0.20;;;;;;;13.31;59.25;98486.84;5038137;28;20044;-70
2023/05/27 07:17:11;;;;;;;0.10;0.10;;;;;;;13.50;59.15;98478.19;5033440;28;20487;-71
2023/05/27 07:19:39;;;;;;;0.15;0.15;;;;;;;13.58;57.69;98472.72;5052026;28;20044;-71
2023/05/27 07:22:12;;;;;;;0.10;0.10;;;;;;;13.83;57.11;98473.13;5034059;28;20462;-70
2023/05/27 07:24:41;;;;;;;0.20;0.20;;;;;;;14.07;56.32;98474.56;5033526;28;20095;-71
2023/05/27 07:27:08;;;;;;;0.30;0.30;;;;;;;14.21;54.54;98477.16;5032662;28;20041;-71
2023/05/27 07:29:40;;;;;;;0.10;0.10;;;;;;;14.29;54.20;98470.81;5035383;28;20072;-70
2023/05/27 07:32:08;;;;;;;0.20;0.20;;;;;;;14.37;54.94;98472.50;5057500;28;20044;-70
2023/05/27 07:34:36;;;;;;;0.20;0.20;;;;;;;14.62;54.51;98471.03;5043444;28;20048;-70
2023/05/27 07:37:04;;;;;;;0.20;0.20;;;;;;;14.86;54.21;98470.53;5042325;28;20040;-70
2023/05/27 07:39:32;;;;;;;0.25;0.25;;;;;;;15.05;53.07;98464.38;5037120;28;20051;-71
2023/05/27 07:42:01;;;;;;;0.28;0.28;;;;;;;15.19;53.09;98457.19;5033952;28;20083;-71
2023/05/27 07:44:30;;;;;;;0.20;0.20;;;;;;;15.26;53.03;98466.09;5038759;28;20060;-70
2023/05/27 07:47:00;;;;;;;0.20;0.20;;;;;;;15.29;53.10;98472.94;5049784;28;20064;-70
2023/05/27 07:49:28;;;;;;;0.20;0.20;;;;;;;15.55;51.79;98456.91;5038696;28;20047;-70
2023/05/27 07:52:15;;;;;;;0.25;0.25;;;;;;;15.68;51.12;98459.59;5036866;28;20109;-72
2023/05/27 07:54:43;;;;;;;0.20;0.20;;;;;;;15.45;50.91;98448.38;5036256;28;20042;-71
2023/05/27 07:57:25;;;;;;;0.10;0.10;;;;;;;15.83;50.52;98458.59;5028902;28;20041;-71
2023/05/27 07:59:54;;;;;;;0.20;0.20;;;;;;;16.09;48.79;98459.38;5034468;28;20670;-71
2023/05/27 08:02:26;;;;;;;0.20;0.20;;;;;;;16.29;48.33;98459.41;5033689;28;20102;-71
2023/05/27 08:04:54;;;;;;;0.22;0.22;;;;;;;16.37;48.11;98456.47;5025933;28;20106;-71
2023/05/27 08:07:38;;;;;;;0.20;0.20;;;;;;;16.61;47.92;98451.44;5032978;28;20447;-72
2023/05/27 08:10:11;;;;;;;0.20;0.20;;;;;;;16.79;47.68;98444.38;5028301;28;20094;-71
2023/05/27 08:12:55;;;;;;;0.10;0.10;;;;;;;16.89;46.88;98443.91;5031564;28;20108;-71
2023/05/27 08:15:32;;;;;;;0.10;0.10;;;;;;;17.06;46.83;98442.38;5050644;28;20492;-71
2023/05/27 08:18:25;;;;;;;0.10;0.10;;;;;;;17.33;46.08;98440.38;5023646;28;20049;-70
2023/05/27 08:21:06;;;;;;;0.20;0.20;;;;;;;17.46;46.18;98447.53;5033090;28;20044;-71
2023/05/27 08:23:47;;;;;;;0.10;0.10;;;;;;;17.48;45.71;98435.47;5051651;28;20054;-72
2023/05/27 08:26:29;;;;;;;0.10;0.10;;;;;;;17.71;45.92;98436.81;5032557;28;20060;-70
2023/05/27 08:29:10;;;;;;;0.10;0.10;;;;;;;17.54;45.88;98431.09;5027090;28;20448;-71
2023/05/27 08:31:57;;;;;;;0.20;0.20;;;;;;;17.81;45.13;98434.44;5046687;28;20052;-71
2023/05/27 08:34:25;;;;;;;0.20;0.20;;;;;;;17.79;45.19;98431.97;5031540;28;20496;-71
2023/05/27 08:36:53;;;;;;;0.10;0.10;;;;;;;17.98;45.35;98435.53;5032506;28;20567;-72
2023/05/27 08:39:21;;;;;;;0.10;0.10;;;;;;;18.08;45.06;98424.22;5033738;28;20094;-72
2023/05/27 08:42:00;;;;;;;0.20;0.20;;;;;;;18.16;45.12;98424.81;5033627;28;20041;-71
2023/05/27 08:44:29;;;;;;;0.10;0.10;;;;;;;18.41;44.26;98413.94;5051518;28;20056;-70
2023/05/27 08:47:03;;;;;;;0.10;0.10;;;;;;;18.60;43.61;98409.38;5029379;28;20040;-70
2023/05/27 08:49:31;;;;;;;0.20;0.20;;;;;;;18.70;43.05;98405.09;5050372;28;20044;-70
2023/05/27 08:52:01;;;;;;;0.20;0.20;;;;;;;18.84;42.39;98399.53;5041963;28;20037;-70
2023/05/27 08:54:30;;;;;;;0.10;0.10;;;;;;;18.80;43.12;98406.44;5051096;28;20124;-70
2023/05/27 08:57:01;;;;;;;0.08;0.08;;;;;;;18.93;42.91;98406.28;5038094;28;20052;-70
2023/05/27 08:59:30;;;;;;;0.20;0.20;;;;;;;18.96;42.47;98392.28;5027233;28;20095;-70
2023/05/27 09:01:58;;;;;;;0.20;0.20;;;;;;;19.15;42.42;98401.19;5033490;28;20045;-70
2023/05/27 09:04:26;;;;;;;0.22;0.22;;;;;;;19.13;42.41;98397.88;5026630;28;20045;-70
2023/05/27 09:06:54;;;;;;;0.10;0.10;;;;;;;19.27;41.60;98402.06;5050190;28;20048;-70
2023/05/27 09:09:22;;;;;;;0.10;0.10;;;;;;;19.35;40.82;98399.84;5050812;28;20155;-71
2023/05/27 09:11:50;;;;;;;0.10;0.10;;;;;;;19.52;40.69;98396.53;5050212;28;20523;-71
2023/05/27 09:14:21;;;;;;;0.10;0.10;;;;;;;19.47;40.54;98393.66;5047055;28;20037;-72
2023/05/27 09:16:50;;;;;;;0.15;0.15;;;;;;;19.42;40.45;98386.19;5049094;28;20507;-71
2023/05/27 09:19:18;;;;;;;0.15;0.15;;;;;;;19.10;39.89;98380.25;5051147;28;20065;-71
2023/05/27 09:21:46;;;;;;;0.10;0.10;;;;;;;19.12;39.09;98382.69;5050729;28;20067;-70
2023/05/27 09:24:13;;;;;;;0.20;0.20;;;;;;;19.31;39.95;98389.72;5050634;28;20060;-72
2023/05/27 09:26:42;;;;;;;0.13;0.13;;;;;;;19.53;40.12;98387.31;5050353;28;20204;-71
2023/05/27 09:29:11;;;;;;;0.10;0.10;;;;;;;19.49;40.04;98378.03;5052171;28;20123;-71
2023/05/27 09:31:42;;;;;;;0.10;0.10;;;;;;;19.39;39.98;98378.56;5048846;28;20045;-71
2023/05/27 09:34:13;;;;;;;0.10;0.10;;;;;;;19.02;41.03;98375.13;5059811;28;20057;-72
2023/05/27 09:36:44;;;;;;;0.10;0.10;;;;;;;19.42;40.40;98375.38;5059524;28;20047;-71
2023/05/27 09:39:12;;;;;;;0.00;0.00;;;;;;;19.73;39.44;98383.22;5052101;28;20460;-70
2023/05/27 09:41:40;;;;;;;0.10;0.10;;;;;;;19.79;39.45;98370.66;5058636;28;20041;-73
2023/05/27 09:44:08;;;;;;;0.10;0.10;;;;;;;19.82;39.32;98370.19;5038296;28;20053;-72
2023/05/27 09:46:36;;;;;;;0.10;0.10;;;;;;;19.84;39.28;98370.75;5054742;28;20040;-70
2023/05/27 09:49:05;;;;;;;0.10;0.10;;;;;;;20.08;38.70;98366.16;5054457;28;20048;-69
2023/05/27 09:51:35;;;;;;;0.10;0.10;;;;;;;20.16;38.40;98369.34;5051186;28;20111;-70
2023/05/27 09:54:03;;;;;;;0.10;0.10;;;;;;;20.08;38.69;98363.47;5053210;28;20052;-70
2023/05/27 09:56:31;;;;;;;0.10;0.10;;;;;;;20.24;38.37;98356.50;5049949;28;20044;-70
2023/05/27 09:59:00;;;;;;;0.10;0.10;;;;;;;20.12;38.59;98360.06;5046185;28;20052;-70
2023/05/27 10:01:29;;;;;;;0.10;0.10;;;;;;;20.37;38.32;98358.97;5034766;28;20079;-70
2023/05/27 10:03:58;;;;;;;0.20;0.20;;;;;;;20.37;37.92;98350.84;5052146;28;20790;-70
2023/05/27 10:06:27;;;;;;;0.13;0.13;;;;;;;20.54;37.27;98348.22;5043828;28;20060;-69
2023/05/27 10:08:56;;;;;;;0.10;0.10;;;;;;;20.38;37.45;98344.34;5049619;28;20049;-69
2023/05/27 10:11:26;;;;;;;0.10;0.10;;;;;;;20.25;38.19;98347.28;5054034;28;20041;-70
2023/05/27 10:13:53;;;;;;;0.10;0.10;;;;;;;20.57;37.30;98340.41;5051248;28;20154;-70
2023/05/27 10:16:21;;;;;;;0.10;0.10;;;;;;;20.38;37.44;98334.34;5053496;28;20041;-71
2023/05/27 10:18:53;;;;;;;0.20;0.20;;;;;;;20.37;36.99;98331.84;5053664;28;20049;-70
2023/05/27 10:21:22;;;;;;;0.10;0.10;;;;;;;20.26;37.81;98329.97;5054019;28;20468;-72
2023/05/27 10:23:54;;;;;;;0.10;0.10;;;;;;;20.51;37.44;98331.34;5052427;28;20702;-70
2023/05/27 10:26:32;;;;;;;0.08;0.08;;;;;;;20.35;37.72;98325.88;5048680;28;20076;-70
2023/05/27 10:29:07;;;;;;;0.10;0.10;;;;;;;20.63;37.38;98317.75;5052740;28;20047;-70
2023/05/27 10:31:36;;;;;;;0.00;0.00;;;;;;;21.13;36.25;98327.94;5053712;28;20041;-70
2023/05/27 10:34:05;;;;;;;0.10;0.10;;;;;;;21.18;35.46;98315.28;5047886;28;20063;-70
2023/05/27 10:36:33;;;;;;;0.10;0.10;;;;;;;21.12;35.58;98316.25;5052821;28;20150;-70
2023/05/27 10:39:03;;;;;;;0.10;0.10;;;;;;;20.79;35.97;98311.56;5052615;28;20119;-69
2023/05/27 10:41:40;;;;;;;0.10;0.10;;;;;;;20.76;35.96;98311.22;5053422;28;20037;-72
2023/05/27 10:44:09;;;;;;;0.10;0.10;;;;;;;20.93;35.64;98312.09;5050463;28;20064;-71
2023/05/27 10:46:41;;;;;;;0.10;0.10;;;;;;;21.14;35.49;98307.84;5043724;28;20033;-71
2023/05/27 10:49:15;;;;;;;0.10;0.10;;;;;;;21.16;35.25;98300.28;5051953;28;20033;-70
2023/05/27 10:51:48;;;;;;;0.10;0.10;;;;;;;21.22;34.95;98294.72;5053143;28;20045;-70
2023/05/27 10:54:16;;;;;;;0.10;0.10;;;;;;;21.49;34.82;98288.66;5051299;28;20037;-70
2023/05/27 10:56:58;;;;;;;0.10;0.10;;;;;;;21.51;34.95;98292.75;5052390;28;20128;-70
2023/05/27 10:59:34;;;;;;;0.10;0.10;;;;;;;21.26;35.18;98286.91;5053253;28;20102;-70
2023/05/27 11:02:03;;;;;;;0.20;0.20;;;;;;;21.57;35.26;98291.78;5045903;28;20052;-70
2023/05/27 11:04:35;;;;;;;0.10;0.10;;;;;;;21.69;35.16;98288.97;5028064;28;20136;-71
2023/05/27 11:07:03;;;;;;;0.10;0.10;;;;;;;21.81;35.07;98291.56;5045007;28;20048;-71
2023/05/27 11:09:32;;;;;;;0.20;0.10;;;;;;;21.90;34.36;98282.75;5056596;28;20045;-70
2023/05/27 11:12:03;;;;;;;0.10;0.10;;;;;;;22.05;34.87;98284.88;5053152;28;20080;-70
2023/05/27 11:14:31;;;;;;;0.10;0.10;;;;;;;22.03;34.04;98280.75;5060587;28;20045;-71
2023/05/27 11:16:59;;;;;;;0.10;0.10;;;;;;;22.09;34.47;98277.06;5063218;28;20037;-70
2023/05/27 11:19:26;;;;;;;0.10;0.10;;;;;;;21.95;34.25;98271.13;5059149;28;20045;-69
2023/05/27 11:21:54;;;;;;;0.10;0.10;;;;;;;21.47;34.58;98275.31;5054530;28;20063;-70
2023/05/27 11:24:22;;;;;;;0.10;0.10;;;;;;;21.79;34.10;98275.53;5053976;28;20044;-70
2023/05/27 11:26:50;;;;;;;0.10;0.10;;;;;;;21.89;34.32;98275.69;5034832;28;20063;-70
2023/05/27 11:29:20;;;;;;;0.10;0.10;;;;;;;22.09;34.31;98272.44;5051548;28;20467;-70
2023/05/27 11:31:48;;;;;;;0.10;0.10;;;;;;;21.91;34.15;98259.91;5053086;28;20107;-71
2023/05/27 11:34:18;;;;;;;0.10;0.10;;;;;;;21.53;34.64;98259.91;5053551;28;20087;-70
2023/05/27 11:36:46;;;;;;;0.10;0.10;;;;;;;21.84;34.38;98264.72;5052270;28;20048;-71
2023/05/27 11:39:16;;;;;;;0.08;0.08;;;;;;;21.82;34.35;98263.31;5052425;28;20037;-70
2023/05/27 11:41:52;;;;;;;0.13;0.13;;;;;;;22.25;34.23;98257.94;5052094;28;20083;-71
2023/05/27 11:44:22;;;;;;;0.03;0.03;;;;;;;22.22;33.93;98244.03;5045883;28;20048;-71
2023/05/27 11:46:53;;;;;;;0.20;0.20;;;;;;;22.08;33.41;98240.06;5050280;28;20041;-70
2023/05/27 11:49:20;;;;;;;0.10;0.10;;;;;;;21.63;33.50;98246.47;5049337;28;20494;-69
2023/05/27 11:51:49;;;;;;;0.10;0.10;;;;;;;21.90;33.36;98233.00;5048994;28;20045;-71